Impacts METAR Board
IDs:

KSAN - San Diego Intl Arpt, CA, US

Updated at: 0700 UTC 24 Sep 2018
Potential Impact None Slight Moderate High
Time 23/19Z 23/20Z 23/21Z 23/22Z 23/23Z 24/00Z 24/01Z 24/02Z 24/03Z 24/04Z 24/05Z 24/06Z 24/07Z
Temp74 74 74 73 73 73 71 69 68 69 68 68 68
Dewpt62 62 62 62 61 61 60 60 60 60 60 60 61
Altim29.93 29.91 29.90 29.88 29.86 29.85 29.85 29.85 29.86 29.87 29.88 29.88 29.88
VIS10 10 10 10 10 10 10 10 10 10 10 10 10
CIG-- -- 17 17 17 180 -- -- 16 15 15 15 15
CoverSCTSCTBKNBKNBKNBKNSCTSCTOVCOVCOVCOVCOVC
FltCatVFRVFRMVFRMVFRMVFRVFRVFRVFRMVFRMVFRMVFRMVFRMVFR
WX--------------------------
WDir0270270280310290290290320280310290270
WSpd6 9 10 8 8 8 7 5 3 6 4 4 5
WGst-- -- -- -- -- -- -- -- -- -- -- -- --
Raw hourly METARs
KSAN 231851Z VRB06KT 10SM FEW015 SCT060 23/17 A2993 RMK AO2 SLP134 T02330167
KSAN 231951Z 27009KT 10SM SCT016 SCT060 23/17 A2991 RMK AO2 SLP129 T02330167
KSAN 232051Z 27010KT 10SM BKN017 23/17 A2990 RMK AO2 SLP124 T02330167 58013
KSAN 232151Z 28008KT 10SM BKN017 23/17 A2988 RMK AO2 SLP116 T02280167
KSAN 232251Z 31008KT 10SM BKN017 BKN180 23/16 A2986 RMK AO2 SLP110 T02280161
KSAN 232351Z 29008KT 10SM SCT017 BKN180 23/16 A2985 RMK AO2 SLP107 T02280161 10239 20222 56016
KSAN 240051Z 29007KT 10SM SCT016 SCT180 22/16 A2985 RMK AO2 SLP106 T02170156
KSAN 240151Z 29005KT 10SM FEW016 SCT180 21/16 A2985 RMK AO2 SLP107 T02060156
KSAN 240251Z 32003KT 10SM OVC016 20/16 A2986 RMK AO2 SLP110 T02000156 53003
KSAN 240351Z 28006KT 10SM OVC015 21/16 A2987 RMK AO2 SLP115 T02060156
KSAN 240451Z 31004KT 10SM OVC015 20/16 A2988 RMK AO2 SLP117 T02000156
KSAN 240551Z 29004KT 10SM OVC015 20/16 A2988 RMK AO2 SLP118 T02000156 10228 20200 51008
KSAN 240651Z 27005KT 10SM OVC015 20/16 A2988 RMK AO2 SLP119 T02000161



Page loaded:  07:51 UTC  |   12:51 AM Pacific  |   01:51 AM Mountain  |   02:51 AM Central  |   03:51 AM Eastern

 

ADVISORIES

FORECASTS

FORECASTS

OBSERVATIONS

USER TOOLS

ABOUT US